Time,TemperatureF,DewpointF,PressureIn,WindDirection,WindDirectionDegrees,WindSpeedMPH,WindSpeedGustMPH,Humidity,HourlyPrecipIn,Conditions,Clouds,dailyrainin,SoftwareType,DateUTC
2013-06-23 00:01:00,56.8,52.7,30.88,South,180,0.0,0.0,86,0.00,,,0.00,WeatherCatV1.15B25,2013-06-23 08:01:00,
2013-06-23 00:06:00,56.8,53.0,30.87,SSE,157,0.0,0.0,87,0.00,,,0.00,WeatherCatV1.15B25,2013-06-23 08:06:00,
2013-06-23 00:11:00,56.8,53.0,30.87,SSE,157,0.0,0.0,87,0.00,,,0.00,WeatherCatV1.15B25,2013-06-23 08:11:00,
2013-06-23 00:16:00,56.8,53.0,30.87,SSE,157,0.0,0.0,87,0.00,,,0.00,WeatherCatV1.15B25,2013-06-23 08:16:00,
2013-06-23 00:21:00,56.8,52.7,30.87,SW,225,0.0,0.0,86,0.00,,,0.00,WeatherCatV1.15B25,2013-06-23 08:21:00,
2013-06-23 00:26:00,56.8,53.0,30.87,South,180,0.0,0.0,87,0.00,,,0.00,WeatherCatV1.15B25,2013-06-23 08:26:00,
2013-06-23 00:31:00,56.8,53.0,30.87,South,180,0.9,0.9,87,0.00,,,0.00,WeatherCatV1.15B25,2013-06-23 08:31:00,
2013-06-23 00:36:00,56.8,52.7,30.87,South,180,0.0,0.0,86,0.00,,,0.00,WeatherCatV1.15B25,2013-06-23 08:36:00,
2013-06-23 00:41:00,56.8,53.0,30.87,South,180,0.0,0.0,87,0.00,,,0.00,WeatherCatV1.15B25,2013-06-23 08:41:00,
2013-06-23 00:46:00,56.8,53.0,30.87,South,180,0.0,0.0,87,0.00,,,0.00,WeatherCatV1.15B25,2013-06-23 08:46:00,
2013-06-23 00:51:00,56.7,52.8,30.87,South,180,0.0,0.0,87,0.00,,,0.00,WeatherCatV1.15B25,2013-06-23 08:51:00,
2013-06-23 00:56:00,56.8,53.0,30.87,South,180,0.0,0.0,87,0.00,,,0.00,WeatherCatV1.15B25,2013-06-23 08:56:00,
2013-06-23 01:01:00,56.8,53.0,30.87,SSE,157,0.0,0.0,87,0.00,,,0.00,WeatherCatV1.15B25,2013-06-23 09:01:00,
2013-06-23 01:06:00,56.8,53.0,30.86,SSE,157,0.0,0.0,87,0.00,,,0.00,WeatherCatV1.15B25,2013-06-23 09:06:00,
2013-06-23 01:11:00,56.8,53.0,30.87,SSE,157,0.0,0.0,87,0.00,,,0.00,WeatherCatV1.15B25,2013-06-23 09:11:00,
2013-06-23 01:16:00,56.8,53.0,30.87,SSE,157,0.0,0.0,87,0.00,,,0.00,WeatherCatV1.15B25,2013-06-23 09:16:00,
2013-06-23 01:21:00,56.8,53.0,30.86,SSE,157,0.0,0.0,87,0.00,,,0.00,WeatherCatV1.15B25,2013-06-23 09:21:00,
2013-06-23 01:26:00,56.8,53.0,30.86,SSE,157,0.0,0.0,87,0.00,,,0.00,WeatherCatV1.15B25,2013-06-23 09:26:00,
2013-06-23 01:31:00,56.8,53.0,30.86,SSE,157,0.0,0.0,87,0.00,,,0.00,WeatherCatV1.15B25,2013-06-23 09:31:00,
2013-06-23 01:36:00,56.8,52.7,30.86,SSW,202,0.0,0.0,86,0.00,,,0.00,WeatherCatV1.15B25,2013-06-23 09:36:00,
2013-06-23 01:41:00,56.8,53.0,30.86,South,180,0.0,0.0,87,0.00,,,0.00,WeatherCatV1.15B25,2013-06-23 09:41:00,
2013-06-23 01:46:00,56.7,52.8,30.86,South,180,0.0,0.0,87,0.00,,,0.00,WeatherCatV1.15B25,2013-06-23 09:46:00,
2013-06-23 01:51:00,56.5,52.6,30.86,South,180,1.3,1.3,87,0.00,,,0.00,WeatherCatV1.15B25,2013-06-23 09:51:00,
2013-06-23 01:56:00,56.5,52.6,30.86,SSE,157,0.0,0.0,87,0.00,,,0.00,WeatherCatV1.15B25,2013-06-23 09:56:00,
2013-06-23 02:01:00,56.3,52.4,30.86,SSE,157,0.0,0.0,87,0.00,,,0.00,WeatherCatV1.15B25,2013-06-23 10:01:00,
2013-06-23 02:06:00,56.3,52.4,30.85,SSE,157,0.0,0.0,87,0.00,,,0.00,WeatherCatV1.15B25,2013-06-23 10:06:00,
2013-06-23 02:11:00,56.3,52.4,30.85,SE,135,0.0,0.0,87,0.00,,,0.00,WeatherCatV1.15B25,2013-06-23 10:11:00,
2013-06-23 02:16:00,56.3,52.4,30.85,SE,135,0.0,0.0,87,0.00,,,0.00,WeatherCatV1.15B25,2013-06-23 10:16:00,
2013-06-23 02:21:00,56.3,52.4,30.85,SE,135,0.0,0.0,87,0.00,,,0.00,WeatherCatV1.15B25,2013-06-23 10:21:00,
2013-06-23 02:26:00,56.3,52.4,30.85,SE,135,0.0,0.0,87,0.00,,,0.00,WeatherCatV1.15B25,2013-06-23 10:26:00,
2013-06-23 02:31:00,56.5,52.6,30.85,SE,135,0.0,0.0,87,0.00,,,0.00,WeatherCatV1.15B25,2013-06-23 10:31:00,
2013-06-23 02:36:00,56.5,52.6,30.85,SE,135,0.0,0.0,87,0.00,,,0.00,WeatherCatV1.15B25,2013-06-23 10:36:00,
2013-06-23 02:41:00,56.5,52.6,30.85,East,90,0.0,0.0,87,0.00,,,0.00,WeatherCatV1.15B25,2013-06-23 10:41:00,
2013-06-23 02:46:00,56.5,52.6,30.85,ESE,112,0.0,0.0,87,0.00,,,0.00,WeatherCatV1.15B25,2013-06-23 10:46:00,
2013-06-23 02:51:00,56.5,52.6,30.85,SSE,157,0.0,0.0,87,0.00,,,0.00,WeatherCatV1.15B25,2013-06-23 10:51:00,
2013-06-23 02:56:00,56.5,52.6,30.84,SSE,157,0.0,0.0,87,0.00,,,0.00,WeatherCatV1.15B25,2013-06-23 10:56:00,
2013-06-23 03:01:00,56.5,52.6,30.85,SSE,157,0.0,0.0,87,0.00,,,0.00,WeatherCatV1.15B25,2013-06-23 11:01:00,
2013-06-23 03:06:00,56.5,52.6,30.84,ESE,112,0.0,0.0,87,0.00,,,0.00,WeatherCatV1.15B25,2013-06-23 11:06:00,
2013-06-23 03:11:00,56.5,52.6,30.84,SSE,157,0.0,0.0,87,0.00,,,0.00,WeatherCatV1.15B25,2013-06-23 11:11:00,
2013-06-23 03:16:00,56.5,52.6,30.84,SSE,157,0.0,0.0,87,0.00,,,0.00,WeatherCatV1.15B25,2013-06-23 11:16:00,
2013-06-23 03:21:00,56.5,52.6,30.84,SSE,157,0.0,0.0,87,0.00,,,0.00,WeatherCatV1.15B25,2013-06-23 11:21:00,
2013-06-23 03:26:00,56.5,52.6,30.83,SSE,157,0.0,0.0,87,0.00,,,0.00,WeatherCatV1.15B25,2013-06-23 11:26:00,
2013-06-23 03:31:00,56.3,52.4,30.83,SSE,157,0.0,0.0,87,0.00,,,0.00,WeatherCatV1.15B25,2013-06-23 11:31:00,
2013-06-23 03:36:00,56.3,52.4,30.83,SSE,157,0.0,0.0,87,0.00,,,0.00,WeatherCatV1.15B25,2013-06-23 11:36:00,
2013-06-23 03:41:00,56.3,52.4,30.83,SSE,157,0.0,0.0,87,0.00,,,0.00,WeatherCatV1.15B25,2013-06-23 11:41:00,
2013-06-23 03:46:00,56.3,52.4,30.83,SSE,157,0.0,0.0,87,0.00,,,0.00,WeatherCatV1.15B25,2013-06-23 11:46:00,
2013-06-23 03:51:00,56.3,52.4,30.83,SSE,157,0.0,0.0,87,0.00,,,0.00,WeatherCatV1.15B25,2013-06-23 11:51:00,
2013-06-23 03:56:00,56.3,52.4,30.83,SSE,157,0.0,0.0,87,0.00,,,0.00,WeatherCatV1.15B25,2013-06-23 11:56:00,
2013-06-23 04:01:00,56.1,52.3,30.83,SSE,157,0.0,0.0,87,0.00,,,0.00,WeatherCatV1.15B25,2013-06-23 12:01:00,
2013-06-23 04:06:00,56.1,52.3,30.83,SSE,157,0.0,0.0,87,0.00,,,0.00,WeatherCatV1.15B25,2013-06-23 12:06:00,
2013-06-23 04:11:00,56.3,52.4,30.83,SSE,157,0.0,0.0,87,0.00,,,0.00,WeatherCatV1.15B25,2013-06-23 12:11:00,
2013-06-23 04:16:00,56.3,52.4,30.83,SSE,157,0.0,0.0,87,0.00,,,0.00,WeatherCatV1.15B25,2013-06-23 12:16:00,
2013-06-23 04:21:00,56.3,52.4,30.83,SSE,157,0.0,0.0,87,0.00,,,0.00,WeatherCatV1.15B25,2013-06-23 12:21:00,
2013-06-23 04:26:00,56.1,52.3,30.83,SSE,157,0.0,0.0,87,0.00,,,0.00,WeatherCatV1.15B25,2013-06-23 12:26:00,
2013-06-23 04:31:00,56.1,52.3,30.83,SSE,157,0.0,0.0,87,0.00,,,0.00,WeatherCatV1.15B25,2013-06-23 12:31:00,
2013-06-23 04:36:00,56.1,52.3,30.83,SSE,157,0.0,0.0,87,0.00,,,0.00,WeatherCatV1.15B25,2013-06-23 12:36:00,
2013-06-23 04:41:00,56.1,52.3,30.82,SSE,157,0.0,0.0,87,0.00,,,0.00,WeatherCatV1.15B25,2013-06-23 12:41:00,
2013-06-23 04:46:00,56.1,52.6,30.82,SSE,157,0.0,0.0,88,0.00,,,0.00,WeatherCatV1.15B25,2013-06-23 12:46:00,
2013-06-23 04:51:00,56.1,52.6,30.82,NE,45,0.0,0.0,88,0.00,,,0.00,WeatherCatV1.15B25,2013-06-23 12:51:00,
2013-06-23 04:56:00,55.9,52.4,30.82,NE,45,0.0,0.0,88,0.00,,,0.00,WeatherCatV1.15B25,2013-06-23 12:56:00,
2013-06-23 05:01:00,55.9,52.4,30.82,NE,45,0.0,0.0,88,0.00,,,0.00,WeatherCatV1.15B25,2013-06-23 13:01:00,
2013-06-23 05:06:00,56.1,52.6,30.82,NE,45,0.0,0.0,88,0.00,,,0.00,WeatherCatV1.15B25,2013-06-23 13:06:00,
2013-06-23 05:11:00,55.9,52.4,30.82,NE,45,0.0,0.0,88,0.00,,,0.00,WeatherCatV1.15B25,2013-06-23 13:11:00,
2013-06-23 05:16:00,56.1,52.6,30.82,NE,45,0.0,0.0,88,0.00,,,0.00,WeatherCatV1.15B25,2013-06-23 13:16:00,
2013-06-23 05:21:00,56.1,52.6,30.82,NE,45,0.0,0.0,88,0.00,,,0.00,WeatherCatV1.15B25,2013-06-23 13:21:00,
2013-06-23 05:26:00,56.1,52.6,30.81,NE,45,0.0,0.0,88,0.00,,,0.00,WeatherCatV1.15B25,2013-06-23 13:26:00,
2013-06-23 05:31:00,56.1,52.6,30.81,NE,45,0.0,0.0,88,0.00,,,0.00,WeatherCatV1.15B25,2013-06-23 13:31:00,
2013-06-23 05:36:00,56.3,52.8,30.81,NE,45,0.0,0.0,88,0.00,,,0.00,WeatherCatV1.15B25,2013-06-23 13:36:00,
2013-06-23 05:41:00,56.3,52.8,30.81,NE,45,0.0,0.0,88,0.00,,,0.00,WeatherCatV1.15B25,2013-06-23 13:41:00,
2013-06-23 05:46:00,56.5,53.0,30.81,NE,45,0.0,0.0,88,0.00,,,0.00,WeatherCatV1.15B25,2013-06-23 13:46:00,
2013-06-23 05:51:00,56.5,53.3,30.81,NE,45,0.0,0.0,89,0.00,,,0.00,WeatherCatV1.15B25,2013-06-23 13:51:00,
2013-06-23 05:56:00,56.5,53.3,30.81,NE,45,0.0,0.0,89,0.00,,,0.00,WeatherCatV1.15B25,2013-06-23 13:56:00,
2013-06-23 06:01:00,56.5,53.3,30.81,NE,45,0.0,0.0,89,0.00,,,0.00,WeatherCatV1.15B25,2013-06-23 14:01:00,
2013-06-23 06:06:00,56.5,53.3,30.80,NE,45,0.0,0.0,89,0.00,,,0.00,WeatherCatV1.15B25,2013-06-23 14:06:00,
2013-06-23 06:11:00,56.5,53.3,30.80,NE,45,0.0,0.0,89,0.00,,,0.00,WeatherCatV1.15B25,2013-06-23 14:11:00,
2013-06-23 06:16:00,56.5,53.3,30.80,NE,45,0.0,0.0,89,0.00,,,0.00,WeatherCatV1.15B25,2013-06-23 14:16:00,
2013-06-23 06:21:00,56.7,53.6,30.80,NE,45,0.0,0.0,89,0.00,,,0.00,WeatherCatV1.15B25,2013-06-23 14:21:00,
2013-06-23 06:26:00,56.7,53.5,30.80,ENE,67,0.0,0.0,89,0.00,,,0.00,WeatherCatV1.15B25,2013-06-23 14:26:00,
2013-06-23 06:31:00,56.8,53.6,30.80,NE,45,0.0,0.0,89,0.00,,,0.00,WeatherCatV1.15B25,2013-06-23 14:31:00,
2013-06-23 06:36:00,56.8,53.6,30.80,NE,45,0.0,0.0,89,0.00,,,0.00,WeatherCatV1.15B25,2013-06-23 14:36:00,
2013-06-23 06:41:00,56.8,53.6,30.80,NE,45,0.0,0.0,89,0.00,,,0.00,WeatherCatV1.15B25,2013-06-23 14:41:00,
2013-06-23 06:46:00,57.0,53.8,30.80,ENE,67,0.0,0.0,89,0.00,,,0.00,WeatherCatV1.15B25,2013-06-23 14:46:00,
2013-06-23 06:51:00,57.0,53.8,30.80,ENE,67,0.0,0.0,89,0.00,,,0.00,WeatherCatV1.15B25,2013-06-23 14:51:00,
2013-06-23 06:56:00,57.0,53.8,30.80,SE,135,0.0,0.0,89,0.00,,,0.00,WeatherCatV1.15B25,2013-06-23 14:56:00,
2013-06-23 07:01:00,57.2,54.0,30.79,SSE,157,0.0,0.0,89,0.00,,,0.00,WeatherCatV1.15B25,2013-06-23 15:01:00,
2013-06-23 07:06:00,57.4,54.2,30.80,South,180,0.0,0.0,89,0.00,,,0.00,WeatherCatV1.15B25,2013-06-23 15:06:00,
2013-06-23 07:11:00,57.2,54.0,30.79,SSE,157,0.0,0.0,89,0.00,,,0.00,WeatherCatV1.15B25,2013-06-23 15:11:00,
2013-06-23 07:16:00,57.4,54.2,30.79,SSW,202,0.0,0.0,89,0.00,,,0.00,WeatherCatV1.15B25,2013-06-23 15:16:00,
2013-06-23 07:21:00,57.4,54.2,30.79,South,180,0.0,0.0,89,0.00,,,0.00,WeatherCatV1.15B25,2013-06-23 15:21:00,
2013-06-23 07:26:00,57.4,54.2,30.79,South,180,0.0,0.0,89,0.00,,,0.00,WeatherCatV1.15B25,2013-06-23 15:26:00,
2013-06-23 07:31:00,57.4,53.9,30.79,SSE,157,0.0,0.0,88,0.00,,,0.00,WeatherCatV1.15B25,2013-06-23 15:31:00,
2013-06-23 07:36:00,57.4,53.9,30.79,SSE,157,0.0,0.0,88,0.00,,,0.00,WeatherCatV1.15B25,2013-06-23 15:36:00,
2013-06-23 07:41:00,57.6,54.0,30.78,SSE,157,0.0,0.0,88,0.00,,,0.00,WeatherCatV1.15B25,2013-06-23 15:41:00,
2013-06-23 07:46:00,57.6,54.0,30.78,South,180,0.0,0.0,88,0.00,,,0.00,WeatherCatV1.15B25,2013-06-23 15:46:00,
2013-06-23 07:51:00,57.7,54.2,30.78,South,180,0.0,0.0,88,0.00,,,0.00,WeatherCatV1.15B25,2013-06-23 15:51:00,
2013-06-23 07:56:00,57.9,54.4,30.78,SE,135,0.0,0.0,88,0.00,,,0.00,WeatherCatV1.15B25,2013-06-23 15:56:00,
2013-06-23 08:01:00,58.1,54.6,30.78,SSE,157,0.0,0.0,88,0.00,,,0.00,WeatherCatV1.15B25,2013-06-23 16:01:00,
2013-06-23 08:06:00,58.3,54.8,30.78,SSE,157,0.0,0.0,88,0.00,,,0.00,WeatherCatV1.15B25,2013-06-23 16:06:00,
2013-06-23 08:11:00,58.5,54.9,30.78,South,180,0.0,0.0,88,0.00,,,0.00,WeatherCatV1.15B25,2013-06-23 16:11:00,
2013-06-23 08:16:00,58.6,54.8,30.78,South,180,0.0,0.0,87,0.00,,,0.00,WeatherCatV1.15B25,2013-06-23 16:16:00,
2013-06-23 08:21:00,58.8,55.0,30.78,South,180,0.0,0.0,87,0.00,,,0.00,WeatherCatV1.15B25,2013-06-23 16:21:00,
2013-06-23 08:26:00,58.8,55.0,30.77,South,180,0.0,0.0,87,0.00,,,0.00,WeatherCatV1.15B25,2013-06-23 16:26:00,
2013-06-23 08:31:00,59.0,55.1,30.77,South,180,0.0,0.0,87,0.00,,,0.00,WeatherCatV1.15B25,2013-06-23 16:31:00,
2013-06-23 08:36:00,59.5,55.7,30.77,NNE,22,0.0,0.0,87,0.00,,,0.00,WeatherCatV1.15B25,2013-06-23 16:36:00,
2013-06-23 08:41:00,59.7,55.9,30.77,NW,315,0.0,0.0,87,0.00,,,0.00,WeatherCatV1.15B25,2013-06-23 16:41:00,
2013-06-23 08:46:00,59.9,55.7,30.77,NW,315,0.0,0.0,86,0.00,,,0.00,WeatherCatV1.15B25,2013-06-23 16:46:00,
2013-06-23 08:51:00,60.4,56.3,30.77,NW,315,0.0,0.0,86,0.00,,,0.00,WeatherCatV1.15B25,2013-06-23 16:51:00,
2013-06-23 08:56:00,60.6,56.1,30.77,NW,315,0.0,0.0,85,0.00,,,0.00,WeatherCatV1.15B25,2013-06-23 16:56:00,
2013-06-23 08:57:00,60.6,56.1,30.77,NW,315,0.0,0.0,85,0.00,,,0.00,WeatherCatV1.15B25,2013-06-23 16:57:00,
2013-06-23 09:00:00,60.6,56.1,30.77,North,0,0.0,0.0,84,0.00,,,0.00,WeatherCatV1.15B25,2013-06-23 17:00:00,
2013-06-23 09:05:00,61.0,56.5,30.77,North,0,0.0,0.0,85,0.00,,,0.00,WeatherCatV1.15B25,2013-06-23 17:05:00,
2013-06-23 09:10:00,61.3,56.5,30.77,North,0,0.0,0.0,84,0.00,,,0.00,WeatherCatV1.15B25,2013-06-23 17:10:00,
2013-06-23 09:15:00,61.5,56.6,30.77,NW,315,0.0,0.0,84,0.00,,,0.00,WeatherCatV1.15B25,2013-06-23 17:15:00,
2013-06-23 09:20:00,61.5,56.3,30.77,WNW,292,0.0,0.0,83,0.00,,,0.00,WeatherCatV1.15B25,2013-06-23 17:20:00,
2013-06-23 09:25:00,61.5,56.3,30.77,NNW,337,0.0,0.0,83,0.00,,,0.00,WeatherCatV1.15B25,2013-06-23 17:25:00,
2013-06-23 09:30:00,61.5,56.3,30.77,North,0,0.0,0.0,83,0.00,,,0.00,WeatherCatV1.15B25,2013-06-23 17:30:00,
2013-06-23 09:35:00,61.9,56.6,30.77,ENE,67,0.0,0.0,83,0.00,,,0.00,WeatherCatV1.15B25,2013-06-23 17:35:00,
2013-06-23 09:40:00,62.1,56.5,30.76,NE,45,0.0,0.0,82,0.00,,,0.00,WeatherCatV1.15B25,2013-06-23 17:40:00,
2013-06-23 09:45:00,62.8,57.2,30.76,ENE,67,0.0,0.0,82,0.00,,,0.00,WeatherCatV1.15B25,2013-06-23 17:45:00,
2013-06-23 09:50:00,63.1,57.2,30.76,NNE,22,0.0,0.0,81,0.00,,,0.00,WeatherCatV1.15B25,2013-06-23 17:50:00,
2013-06-23 09:55:00,63.5,57.2,30.75,NW,315,0.0,0.0,80,0.00,,,0.00,WeatherCatV1.15B25,2013-06-23 17:55:00,
2013-06-23 10:00:00,64.0,57.7,30.75,NNW,337,0.0,0.0,80,0.00,,,0.00,WeatherCatV1.15B25,2013-06-23 18:00:00,
2013-06-23 10:05:00,64.2,57.9,30.75,NNE,22,0.0,0.0,80,0.00,,,0.00,WeatherCatV1.15B25,2013-06-23 18:05:00,
2013-06-23 10:10:00,64.8,58.1,30.75,WNW,292,0.0,0.0,79,0.00,,,0.00,WeatherCatV1.15B25,2013-06-23 18:10:00,
2013-06-23 10:15:00,64.9,57.9,30.75,WNW,292,0.0,0.0,78,0.00,,,0.00,WeatherCatV1.15B25,2013-06-23 18:15:00,
2013-06-23 10:20:00,64.6,57.5,30.75,NW,315,0.0,0.0,78,0.00,,,0.00,WeatherCatV1.15B25,2013-06-23 18:20:00,
2013-06-23 10:25:00,64.2,57.2,30.76,NW,315,0.0,0.0,78,0.00,,,0.00,WeatherCatV1.15B25,2013-06-23 18:25:00,
2013-06-23 10:30:00,64.2,57.2,30.75,NNW,337,0.0,0.0,78,0.00,,,0.00,WeatherCatV1.15B25,2013-06-23 18:30:00,
2013-06-23 10:35:00,64.0,57.0,30.75,NNW,337,0.0,0.0,78,0.00,,,0.00,WeatherCatV1.15B25,2013-06-23 18:35:00,
2013-06-23 10:40:00,64.0,56.7,30.75,North,0,0.0,0.0,77,0.00,,,0.00,WeatherCatV1.15B25,2013-06-23 18:40:00,
2013-06-23 10:45:00,63.5,56.5,30.74,NNE,22,0.0,0.0,78,0.00,,,0.00,WeatherCatV1.15B25,2013-06-23 18:45:00,
2013-06-23 10:50:00,63.7,56.7,30.74,North,0,0.0,0.0,78,0.00,,,0.00,WeatherCatV1.15B25,2013-06-23 18:50:00,
2013-06-23 10:55:00,64.0,57.0,30.74,North,0,0.0,0.0,78,0.00,,,0.00,WeatherCatV1.15B25,2013-06-23 18:55:00,
2013-06-23 11:00:00,64.6,57.5,30.74,NNE,22,0.0,0.0,78,0.00,,,0.00,WeatherCatV1.15B25,2013-06-23 19:00:00,
2013-06-23 11:05:00,64.6,57.5,30.74,North,0,0.0,0.0,78,0.00,,,0.00,WeatherCatV1.15B25,2013-06-23 19:05:00,
2013-06-23 11:10:00,64.6,57.2,30.74,North,0,0.0,0.0,77,0.00,,,0.00,WeatherCatV1.15B25,2013-06-23 19:10:00,
2013-06-23 11:15:00,64.6,57.2,30.73,North,0,0.0,0.0,77,0.00,,,0.00,WeatherCatV1.15B25,2013-06-23 19:15:00,
2013-06-23 11:20:00,64.2,56.8,30.73,North,0,0.0,0.0,77,0.00,,,0.00,WeatherCatV1.15B25,2013-06-23 19:20:00,
2013-06-23 11:25:00,64.0,56.7,30.74,NNE,22,0.0,0.0,77,0.00,,,0.00,WeatherCatV1.15B25,2013-06-23 19:25:00,
2013-06-23 11:30:00,64.0,56.7,30.74,North,0,0.0,0.0,77,0.00,,,0.00,WeatherCatV1.15B25,2013-06-23 19:30:00,
2013-06-23 11:35:00,63.7,56.3,30.74,North,0,0.0,0.0,77,0.00,,,0.00,WeatherCatV1.15B25,2013-06-23 19:35:00,
2013-06-23 11:40:00,63.5,56.5,30.74,NNW,337,0.0,0.0,78,0.00,,,0.00,WeatherCatV1.15B25,2013-06-23 19:40:00,
2013-06-23 11:45:00,63.3,56.3,30.73,NNW,337,0.0,0.0,78,0.00,,,0.00,WeatherCatV1.15B25,2013-06-23 19:45:00,
2013-06-23 11:50:00,63.1,56.1,30.73,North,0,0.0,0.0,78,0.00,,,0.00,WeatherCatV1.15B25,2013-06-23 19:50:00,
2013-06-23 11:55:00,63.0,55.9,30.73,NNE,22,0.0,0.0,78,0.00,,,0.00,WeatherCatV1.15B25,2013-06-23 19:55:00,
2013-06-23 12:00:00,63.0,55.9,30.73,North,0,0.0,0.0,78,0.00,,,0.00,WeatherCatV1.15B25,2013-06-23 20:00:00,
2013-06-23 12:05:00,63.1,56.1,30.73,NNE,22,0.0,0.0,78,0.00,,,0.00,WeatherCatV1.15B25,2013-06-23 20:05:00,
2013-06-23 12:10:00,63.3,56.3,30.72,NNE,22,0.0,0.0,78,0.00,,,0.00,WeatherCatV1.15B25,2013-06-23 20:10:00,
2013-06-23 12:15:00,63.9,56.8,30.72,North,0,0.0,0.0,78,0.00,,,0.00,WeatherCatV1.15B25,2013-06-23 20:15:00,
2013-06-23 12:20:00,64.0,57.0,30.72,North,0,0.0,0.0,78,0.00,,,0.00,WeatherCatV1.15B25,2013-06-23 20:20:00,
2013-06-23 12:25:00,64.2,57.2,30.72,NNW,337,0.0,0.0,78,0.00,,,0.00,WeatherCatV1.15B25,2013-06-23 20:25:00,
2013-06-23 12:30:00,64.8,57.7,30.72,North,0,0.0,0.0,78,0.00,,,0.00,WeatherCatV1.15B25,2013-06-23 20:30:00,
2013-06-23 12:35:00,65.1,57.7,30.72,North,0,0.0,0.0,77,0.00,,,0.00,WeatherCatV1.15B25,2013-06-23 20:35:00,
2013-06-23 12:40:00,65.5,58.1,30.72,North,0,0.0,0.0,77,0.00,,,0.00,WeatherCatV1.15B25,2013-06-23 20:40:00,
2013-06-23 12:45:00,66.0,58.6,30.72,NNE,22,0.0,0.0,77,0.00,,,0.00,WeatherCatV1.15B25,2013-06-23 20:45:00,
2013-06-23 12:50:00,66.4,58.6,30.72,NNE,22,0.0,0.0,76,0.00,,,0.00,WeatherCatV1.15B25,2013-06-23 20:50:00,
2013-06-23 12:55:00,66.7,58.5,30.72,NNE,22,0.0,0.0,75,0.00,,,0.00,WeatherCatV1.15B25,2013-06-23 20:55:00,
2013-06-23 12:58:00,66.7,58.5,30.72,NW,315,0.0,0.0,75,0.00,,,0.00,WeatherCatV1.15B25,2013-06-23 20:58:00,
2013-06-23 13:03:00,67.3,58.7,30.72,North,0,0.0,0.0,74,0.00,,,0.00,WeatherCatV1.15B25,2013-06-23 21:03:00,
2013-06-23 13:08:00,67.6,58.7,30.71,North,0,0.0,0.0,73,0.00,,,0.00,WeatherCatV1.15B25,2013-06-23 21:08:00,
2013-06-23 13:13:00,67.8,58.9,30.71,North,0,0.0,0.0,73,0.00,,,0.00,WeatherCatV1.15B25,2013-06-23 21:13:00,
2013-06-23 13:18:00,68.0,58.3,30.71,North,0,0.0,0.0,71,0.00,,,0.00,WeatherCatV1.15B25,2013-06-23 21:18:00,
2013-06-23 13:23:00,68.2,58.1,30.71,NNE,22,0.0,0.0,70,0.00,,,0.00,WeatherCatV1.15B25,2013-06-23 21:23:00,
2013-06-23 13:28:00,68.4,58.2,30.71,NNE,22,0.0,0.0,70,0.00,,,0.00,WeatherCatV1.15B25,2013-06-23 21:28:00,
2013-06-23 13:33:00,68.5,58.4,30.71,NNW,337,0.0,0.0,70,0.00,,,0.00,WeatherCatV1.15B25,2013-06-23 21:33:00,
2013-06-23 13:38:00,68.5,58.0,30.71,NE,45,0.0,0.0,69,0.00,,,0.00,WeatherCatV1.15B25,2013-06-23 21:38:00,
2013-06-23 13:43:00,68.5,58.0,30.71,North,0,0.0,0.0,69,0.00,,,0.00,WeatherCatV1.15B25,2013-06-23 21:43:00,
2013-06-23 13:48:00,68.7,58.1,30.71,North,0,0.0,0.0,69,0.00,,,0.00,WeatherCatV1.15B25,2013-06-23 21:48:00,
2013-06-23 13:53:00,69.1,57.6,30.71,North,0,0.0,0.0,67,0.00,,,0.00,WeatherCatV1.15B25,2013-06-23 21:53:00,
2013-06-23 13:58:00,69.1,57.6,30.71,North,0,0.0,0.0,67,0.00,,,0.00,WeatherCatV1.15B25,2013-06-23 21:58:00,
2013-06-23 14:03:00,70.0,58.5,30.71,North,0,0.0,0.0,67,0.00,,,0.00,WeatherCatV1.15B25,2013-06-23 22:03:00,
2013-06-23 14:08:00,70.7,58.3,30.70,North,0,0.0,0.0,65,0.00,,,0.00,WeatherCatV1.15B25,2013-06-23 22:08:00,
2013-06-23 14:13:00,70.9,58.5,30.70,North,0,0.0,0.0,65,0.00,,,0.00,WeatherCatV1.15B25,2013-06-23 22:13:00,
2013-06-23 14:18:00,71.2,58.0,30.70,North,0,0.0,0.0,63,0.00,,,0.00,WeatherCatV1.15B25,2013-06-23 22:18:00,
2013-06-23 14:23:00,72.0,58.2,30.70,NNW,337,0.0,0.0,62,0.00,,,0.00,WeatherCatV1.15B25,2013-06-23 22:23:00,
2013-06-23 14:28:00,72.3,58.1,30.70,NW,315,0.0,0.0,61,0.00,,,0.00,WeatherCatV1.15B25,2013-06-23 22:28:00,
2013-06-23 14:33:00,72.7,58.0,30.70,NNW,337,0.0,0.0,60,0.00,,,0.00,WeatherCatV1.15B25,2013-06-23 22:33:00,
2013-06-23 14:38:00,73.2,57.5,30.70,North,0,0.0,0.0,58,0.00,,,0.00,WeatherCatV1.15B25,2013-06-23 22:38:00,
2013-06-23 14:43:00,73.6,57.8,30.70,North,0,0.0,0.0,58,0.00,,,0.00,WeatherCatV1.15B25,2013-06-23 22:43:00,
2013-06-23 14:48:00,73.8,57.5,30.69,NNW,337,0.0,0.0,57,0.00,,,0.00,WeatherCatV1.15B25,2013-06-23 22:48:00,
2013-06-23 14:53:00,74.1,57.8,30.69,North,0,0.0,0.0,57,0.00,,,0.00,WeatherCatV1.15B25,2013-06-23 22:53:00,
2013-06-23 14:58:00,74.5,58.2,30.69,NNW,337,0.0,0.0,57,0.00,,,0.00,WeatherCatV1.15B25,2013-06-23 22:58:00,
2013-06-23 15:03:00,75.0,58.2,30.69,NNW,337,0.0,0.0,56,0.00,,,0.00,WeatherCatV1.15B25,2013-06-23 23:03:00,
2013-06-23 15:08:00,75.7,58.4,30.68,North,0,0.0,0.0,55,0.00,,,0.00,WeatherCatV1.15B25,2013-06-23 23:08:00,
2013-06-23 15:13:00,76.1,58.2,30.68,NNE,22,0.0,0.0,54,0.00,,,0.00,WeatherCatV1.15B25,2013-06-23 23:13:00,
2013-06-23 15:18:00,76.3,58.4,30.68,NNW,337,0.0,0.0,54,0.00,,,0.00,WeatherCatV1.15B25,2013-06-23 23:18:00,
2013-06-23 15:23:00,76.8,58.4,30.68,North,0,0.0,0.0,53,0.00,,,0.00,WeatherCatV1.15B25,2013-06-23 23:23:00,
2013-06-23 15:28:00,77.0,58.0,30.68,North,0,0.0,0.0,52,0.00,,,0.00,WeatherCatV1.15B25,2013-06-23 23:28:00,
2013-06-23 15:33:00,77.2,58.2,30.68,North,0,0.0,0.0,52,0.00,,,0.00,WeatherCatV1.15B25,2013-06-23 23:33:00,
2013-06-23 15:38:00,77.4,57.8,30.68,NNW,337,0.0,0.0,51,0.00,,,0.00,WeatherCatV1.15B25,2013-06-23 23:38:00,
2013-06-23 15:43:00,77.5,58.0,30.68,NNW,337,0.0,0.0,51,0.00,,,0.00,WeatherCatV1.15B25,2013-06-23 23:43:00,
2013-06-23 15:48:00,77.5,58.0,30.67,North,0,0.0,0.0,51,0.00,,,0.00,WeatherCatV1.15B25,2013-06-23 23:48:00,
2013-06-23 15:53:00,77.4,57.8,30.67,North,0,0.0,0.0,51,0.00,,,0.00,WeatherCatV1.15B25,2013-06-23 23:53:00,
2013-06-23 15:58:00,77.2,57.7,30.67,North,0,0.0,0.0,51,0.00,,,0.00,WeatherCatV1.15B25,2013-06-23 23:58:00,
2013-06-23 16:03:00,75.9,56.6,30.66,NNE,22,0.0,0.0,51,0.00,,,0.00,WeatherCatV1.15B25,2013-06-24 00:03:00,
2013-06-23 16:08:00,75.0,55.7,30.66,North,0,0.0,0.0,51,0.00,,,0.00,WeatherCatV1.15B25,2013-06-24 00:08:00,
2013-06-23 16:13:00,74.8,56.0,30.66,North,0,0.0,0.0,52,0.00,,,0.00,WeatherCatV1.15B25,2013-06-24 00:13:00,
2013-06-23 16:18:00,74.5,56.2,30.66,NNW,337,0.0,0.0,53,0.00,,,0.00,WeatherCatV1.15B25,2013-06-24 00:18:00,
2013-06-23 16:23:00,74.1,55.8,30.66,NNW,337,0.0,0.0,53,0.00,,,0.00,WeatherCatV1.15B25,2013-06-24 00:23:00,
2013-06-23 16:28:00,73.8,55.5,30.66,NNW,337,0.0,0.0,53,0.00,,,0.00,WeatherCatV1.15B25,2013-06-24 00:28:00,
2013-06-23 16:33:00,73.0,55.3,30.66,North,0,0.0,0.0,54,0.00,,,0.00,WeatherCatV1.15B25,2013-06-24 00:33:00,
2013-06-23 16:38:00,72.1,55.0,30.65,North,0,0.0,0.0,55,0.00,,,0.00,WeatherCatV1.15B25,2013-06-24 00:38:00,
2013-06-23 16:43:00,71.8,55.2,30.66,ENE,67,0.0,0.0,56,0.00,,,0.00,WeatherCatV1.15B25,2013-06-24 00:43:00,
2013-06-23 16:48:00,71.8,55.2,30.65,North,0,0.0,0.0,56,0.00,,,0.00,WeatherCatV1.15B25,2013-06-24 00:48:00,
2013-06-23 16:53:00,70.7,54.7,30.65,North,0,0.0,0.0,57,0.00,,,0.00,WeatherCatV1.15B25,2013-06-24 00:53:00,
2013-06-23 16:58:00,70.3,54.4,30.65,North,0,0.0,0.0,57,0.00,,,0.00,WeatherCatV1.15B25,2013-06-24 00:58:00,
2013-06-23 17:03:00,70.0,54.6,30.65,North,0,0.0,0.0,58,0.00,,,0.00,WeatherCatV1.15B25,2013-06-24 01:03:00,
2013-06-23 17:08:00,70.0,54.0,30.65,North,0,0.0,0.0,57,0.00,,,0.00,WeatherCatV1.15B25,2013-06-24 01:08:00,
2013-06-23 17:13:00,69.6,53.7,30.64,North,0,0.0,0.0,57,0.00,,,0.00,WeatherCatV1.15B25,2013-06-24 01:13:00,
2013-06-23 17:18:00,69.4,54.0,30.64,NNE,22,0.0,0.0,58,0.00,,,0.00,WeatherCatV1.15B25,2013-06-24 01:18:00,
2013-06-23 17:23:00,69.1,53.7,30.64,NNW,337,0.0,0.0,58,0.00,,,0.00,WeatherCatV1.15B25,2013-06-24 01:23:00,
2013-06-23 17:28:00,68.9,53.5,30.64,North,0,0.0,0.0,58,0.00,,,0.00,WeatherCatV1.15B25,2013-06-24 01:28:00,
2013-06-23 17:33:00,68.7,53.3,30.64,North,0,0.0,0.0,58,0.00,,,0.00,WeatherCatV1.15B25,2013-06-24 01:33:00,
2013-06-23 17:38:00,68.5,53.6,30.64,NE,45,0.0,0.0,59,0.00,,,0.00,WeatherCatV1.15B25,2013-06-24 01:38:00,
2013-06-23 17:43:00,68.4,53.5,30.64,North,0,0.0,0.0,59,0.00,,,0.00,WeatherCatV1.15B25,2013-06-24 01:43:00,
2013-06-23 17:48:00,68.4,53.3,30.64,North,0,0.0,0.0,59,0.00,,,0.00,WeatherCatV1.15B25,2013-06-24 01:48:00,
2013-06-23 17:53:00,68.2,53.3,30.64,North,0,0.0,0.0,59,0.00,,,0.00,WeatherCatV1.15B25,2013-06-24 01:53:00,
2013-06-23 17:58:00,68.2,53.3,30.64,North,0,0.0,0.0,59,0.00,,,0.00,WeatherCatV1.15B25,2013-06-24 01:58:00,
2013-06-23 18:03:00,68.2,53.8,30.63,North,0,0.0,0.0,60,0.00,,,0.00,WeatherCatV1.15B25,2013-06-24 02:03:00,
2013-06-23 18:08:00,67.8,53.4,30.63,North,0,0.0,0.0,60,0.00,,,0.00,WeatherCatV1.15B25,2013-06-24 02:08:00,
2013-06-23 18:13:00,67.8,53.4,30.63,North,0,0.0,0.0,60,0.00,,,0.00,WeatherCatV1.15B25,2013-06-24 02:13:00,
2013-06-23 18:18:00,68.2,53.8,30.62,NNE,22,0.0,0.0,60,0.00,,,0.00,WeatherCatV1.15B25,2013-06-24 02:18:00,
2013-06-23 18:23:00,67.8,53.9,30.62,North,0,0.0,0.0,61,0.00,,,0.00,WeatherCatV1.15B25,2013-06-24 02:23:00,
2013-06-23 18:28:00,68.0,54.0,30.62,North,0,0.0,0.0,61,0.00,,,0.00,WeatherCatV1.15B25,2013-06-24 02:28:00,
2013-06-23 18:33:00,68.0,54.0,30.62,North,0,0.0,0.0,61,0.00,,,0.00,WeatherCatV1.15B25,2013-06-24 02:33:00,
2013-06-23 18:38:00,67.8,53.9,30.62,NNE,22,0.0,0.0,61,0.00,,,0.00,WeatherCatV1.15B25,2013-06-24 02:38:00,
2013-06-23 18:43:00,67.8,53.9,30.62,NNE,22,0.0,0.0,61,0.00,,,0.00,WeatherCatV1.15B25,2013-06-24 02:43:00,
2013-06-23 18:48:00,67.8,53.9,30.62,North,0,0.0,0.0,61,0.00,,,0.00,WeatherCatV1.15B25,2013-06-24 02:48:00,
2013-06-23 18:53:00,67.8,53.4,30.61,North,0,0.0,0.0,60,0.00,,,0.00,WeatherCatV1.15B25,2013-06-24 02:53:00,
2013-06-23 18:58:00,68.7,54.3,30.61,North,0,0.0,0.0,60,0.00,,,0.00,WeatherCatV1.15B25,2013-06-24 02:58:00,
2013-06-23 19:03:00,70.2,55.4,30.61,North,0,0.0,0.0,60,0.00,,,0.00,WeatherCatV1.15B25,2013-06-24 03:03:00,
2013-06-23 19:08:00,70.3,54.9,30.61,North,0,0.0,0.0,58,0.00,,,0.00,WeatherCatV1.15B25,2013-06-24 03:08:00,
2013-06-23 19:13:00,69.8,54.4,30.61,NNE,22,0.0,0.0,58,0.00,,,0.00,WeatherCatV1.15B25,2013-06-24 03:13:00,
2013-06-23 19:18:00,69.1,53.7,30.61,North,0,0.0,0.0,58,0.00,,,0.00,WeatherCatV1.15B25,2013-06-24 03:18:00,
2013-06-23 19:23:00,68.5,53.2,30.61,North,0,0.0,0.0,58,0.00,,,0.00,WeatherCatV1.15B25,2013-06-24 03:23:00,
2013-06-23 19:28:00,68.2,53.3,30.61,North,0,0.0,0.0,59,0.00,,,0.00,WeatherCatV1.15B25,2013-06-24 03:28:00,
2013-06-23 19:33:00,67.6,53.4,30.61,North,0,0.0,0.0,60,0.00,,,0.00,WeatherCatV1.15B25,2013-06-24 03:33:00,
2013-06-23 19:38:00,67.3,53.0,30.61,North,0,0.0,0.0,60,0.00,,,0.00,WeatherCatV1.15B25,2013-06-24 03:38:00,
2013-06-23 19:43:00,66.9,53.0,30.61,North,0,0.0,0.0,61,0.00,,,0.00,WeatherCatV1.15B25,2013-06-24 03:43:00,
2013-06-23 19:48:00,66.7,52.9,30.61,North,0,0.0,0.0,61,0.00,,,0.00,WeatherCatV1.15B25,2013-06-24 03:48:00,
2013-06-23 19:53:00,66.7,52.9,30.60,North,0,0.0,0.0,61,0.00,,,0.00,WeatherCatV1.15B25,2013-06-24 03:53:00,
2013-06-23 19:58:00,66.4,52.6,30.60,North,0,0.0,0.0,61,0.00,,,0.00,WeatherCatV1.15B25,2013-06-24 03:58:00,
2013-06-23 20:01:00,66.4,52.6,30.60,North,0,0.0,0.0,61,0.00,,,0.00,WeatherCatV1.15B25,2013-06-24 04:01:00,
2013-06-23 20:06:00,66.2,52.2,30.60,NNW,337,0.0,0.0,61,0.00,,,0.00,WeatherCatV1.15B25,2013-06-24 04:06:00,
2013-06-23 20:11:00,66.0,52.2,30.60,North,0,0.0,0.0,61,0.00,,,0.00,WeatherCatV1.15B25,2013-06-24 04:11:00,
2013-06-23 20:16:00,66.0,52.2,30.60,North,0,0.0,0.0,61,0.00,,,0.00,WeatherCatV1.15B25,2013-06-24 04:16:00,
2013-06-23 20:21:00,65.8,52.3,30.60,North,0,0.0,0.0,62,0.00,,,0.00,WeatherCatV1.15B25,2013-06-24 04:21:00,
2013-06-23 20:26:00,65.7,52.3,30.60,North,0,0.0,0.0,62,0.00,,,0.00,WeatherCatV1.15B25,2013-06-24 04:26:00,
2013-06-23 20:31:00,65.5,52.1,30.60,North,0,0.0,0.0,62,0.00,,,0.00,WeatherCatV1.15B25,2013-06-24 04:31:00,
2013-06-23 20:36:00,65.5,52.1,30.60,North,0,0.0,0.0,62,0.00,,,0.00,WeatherCatV1.15B25,2013-06-24 04:36:00,
2013-06-23 20:41:00,65.3,51.9,30.60,North,0,0.0,0.0,62,0.00,,,0.00,WeatherCatV1.15B25,2013-06-24 04:41:00,
2013-06-23 20:46:00,65.1,51.7,30.60,North,0,0.0,0.0,62,0.00,,,0.00,WeatherCatV1.15B25,2013-06-24 04:46:00,
2013-06-23 20:51:00,65.1,51.7,30.60,North,0,0.0,0.0,62,0.00,,,0.00,WeatherCatV1.15B25,2013-06-24 04:51:00,
2013-06-23 20:56:00,65.1,52.2,30.60,ENE,67,0.0,0.0,63,0.00,,,0.00,WeatherCatV1.15B25,2013-06-24 04:56:00,
2013-06-23 21:01:00,64.9,52.0,30.60,ENE,67,0.0,0.0,63,0.00,,,0.00,WeatherCatV1.15B25,2013-06-24 05:01:00,
2013-06-23 21:06:00,64.9,52.0,30.60,ENE,67,0.0,0.0,63,0.00,,,0.00,WeatherCatV1.15B25,2013-06-24 05:06:00,
2013-06-23 21:11:00,64.9,52.0,30.60,ENE,67,0.0,0.0,63,0.00,,,0.00,WeatherCatV1.15B25,2013-06-24 05:11:00,
2013-06-23 21:16:00,64.9,52.0,30.60,NE,45,0.0,0.0,63,0.00,,,0.00,WeatherCatV1.15B25,2013-06-24 05:16:00,
2013-06-23 21:21:00,64.6,52.2,30.60,NE,45,0.0,0.0,64,0.00,,,0.00,WeatherCatV1.15B25,2013-06-24 05:21:00,
2013-06-23 21:26:00,64.6,52.1,30.60,NE,45,0.0,0.0,64,0.00,,,0.00,WeatherCatV1.15B25,2013-06-24 05:26:00,
2013-06-23 21:31:00,64.2,51.7,30.60,NE,45,0.0,0.0,64,0.00,,,0.00,WeatherCatV1.15B25,2013-06-24 05:31:00,
2013-06-23 21:36:00,64.2,51.7,30.60,NE,45,0.0,0.0,64,0.00,,,0.00,WeatherCatV1.15B25,2013-06-24 05:36:00,
2013-06-23 21:41:00,64.0,51.6,30.60,NE,45,0.0,0.0,64,0.00,,,0.00,WeatherCatV1.15B25,2013-06-24 05:41:00,
2013-06-23 21:46:00,64.0,51.6,30.60,NE,45,0.0,0.0,64,0.00,,,0.00,WeatherCatV1.15B25,2013-06-24 05:46:00,
2013-06-23 21:51:00,63.7,51.2,30.60,NE,45,0.0,0.0,64,0.00,,,0.00,WeatherCatV1.15B25,2013-06-24 05:51:00,
2013-06-23 21:56:00,63.5,51.1,30.60,NE,45,0.0,0.0,64,0.00,,,0.00,WeatherCatV1.15B25,2013-06-24 05:56:00,
2013-06-23 22:01:00,63.3,50.9,30.60,NE,45,0.0,0.0,64,0.00,,,0.00,WeatherCatV1.15B25,2013-06-24 06:01:00,
2013-06-23 22:06:00,63.1,51.1,30.60,NE,45,0.0,0.0,65,0.00,,,0.00,WeatherCatV1.15B25,2013-06-24 06:06:00,
2013-06-23 22:11:00,63.0,51.0,30.60,NE,45,0.0,0.0,65,0.00,,,0.00,WeatherCatV1.15B25,2013-06-24 06:11:00,
2013-06-23 22:16:00,62.8,50.8,30.61,SSE,157,0.0,0.0,65,0.00,,,0.00,WeatherCatV1.15B25,2013-06-24 06:16:00,
2013-06-23 22:21:00,62.6,51.0,30.61,ENE,67,0.0,0.0,66,0.00,,,0.00,WeatherCatV1.15B25,2013-06-24 06:21:00,
2013-06-23 22:26:00,62.4,51.3,30.60,East,90,0.0,0.0,67,0.00,,,0.00,WeatherCatV1.15B25,2013-06-24 06:26:00,
2013-06-23 22:31:00,62.4,51.3,30.60,East,90,0.0,0.0,67,0.00,,,0.00,WeatherCatV1.15B25,2013-06-24 06:31:00,
2013-06-23 22:36:00,62.2,51.5,30.60,NE,45,0.0,0.0,68,0.00,,,0.00,WeatherCatV1.15B25,2013-06-24 06:36:00,
2013-06-23 22:41:00,62.2,51.5,30.60,NNE,22,0.0,0.0,68,0.00,,,0.00,WeatherCatV1.15B25,2013-06-24 06:41:00,
2013-06-23 22:46:00,61.7,51.1,30.60,North,0,0.0,0.0,68,0.00,,,0.00,WeatherCatV1.15B25,2013-06-24 06:46:00,
2013-06-23 22:51:00,61.3,50.7,30.60,North,0,0.0,0.0,68,0.00,,,0.00,WeatherCatV1.15B25,2013-06-24 06:51:00,
2013-06-23 22:56:00,61.2,51.0,30.60,North,0,0.0,0.0,69,0.00,,,0.00,WeatherCatV1.15B25,2013-06-24 06:56:00,
2013-06-23 23:01:00,61.0,50.8,30.60,North,0,0.0,0.0,69,0.00,,,0.00,WeatherCatV1.15B25,2013-06-24 07:01:00,
2013-06-23 23:06:00,61.0,50.8,30.60,North,0,0.0,0.0,69,0.00,,,0.00,WeatherCatV1.15B25,2013-06-24 07:06:00,
2013-06-23 23:11:00,60.8,50.7,30.59,NE,45,0.0,0.0,69,0.00,,,0.00,WeatherCatV1.15B25,2013-06-24 07:11:00,
2013-06-23 23:16:00,60.6,50.5,30.59,NE,45,0.0,0.0,69,0.00,,,0.00,WeatherCatV1.15B25,2013-06-24 07:16:00,
2013-06-23 23:21:00,60.6,50.9,30.59,North,0,0.0,0.0,70,0.00,,,0.00,WeatherCatV1.15B25,2013-06-24 07:21:00,
2013-06-23 23:26:00,60.4,50.7,30.59,North,0,0.0,0.0,70,0.00,,,0.00,WeatherCatV1.15B25,2013-06-24 07:26:00,
2013-06-23 23:31:00,60.3,50.5,30.60,North,0,0.0,0.0,70,0.00,,,0.00,WeatherCatV1.15B25,2013-06-24 07:31:00,
2013-06-23 23:36:00,60.1,50.4,30.59,NNE,22,0.0,0.0,70,0.00,,,0.00,WeatherCatV1.15B25,2013-06-24 07:36:00,
2013-06-23 23:41:00,60.1,50.4,30.59,NNE,22,0.0,0.0,70,0.00,,,0.00,WeatherCatV1.15B25,2013-06-24 07:41:00,
2013-06-23 23:46:00,59.9,50.2,30.59,NNE,22,0.0,0.0,70,0.00,,,0.00,WeatherCatV1.15B25,2013-06-24 07:46:00,
2013-06-23 23:51:00,59.9,50.5,30.60,NNE,22,0.0,0.0,71,0.00,,,0.00,WeatherCatV1.15B25,2013-06-24 07:51:00,
2013-06-23 23:56:00,59.7,50.4,30.59,NNE,22,0.0,0.0,71,0.00,,,0.00,WeatherCatV1.15B25,2013-06-24 07:56:00,